sensor_id;sensor_type;location;lat;lon;timestamp;P1;durP1;ratioP1;P2;durP2;ratioP2
21386;SDS011;10854;45.922;6.716;2023-08-17T00:02:23;7.00;;;3.93;;
21386;SDS011;10854;45.922;6.716;2023-08-17T00:04:51;5.87;;;4.03;;
21386;SDS011;10854;45.922;6.716;2023-08-17T00:07:19;5.27;;;3.67;;
21386;SDS011;10854;45.922;6.716;2023-08-17T00:09:47;5.50;;;4.40;;
21386;SDS011;10854;45.922;6.716;2023-08-17T00:12:16;10.43;;;4.67;;
21386;SDS011;10854;45.922;6.716;2023-08-17T00:14:44;8.70;;;4.70;;
21386;SDS011;10854;45.922;6.716;2023-08-17T00:17:12;8.93;;;5.00;;
21386;SDS011;10854;45.922;6.716;2023-08-17T00:19:41;5.90;;;4.73;;
21386;SDS011;10854;45.922;6.716;2023-08-17T00:22:09;6.50;;;4.60;;
21386;SDS011;10854;45.922;6.716;2023-08-17T00:24:37;6.50;;;4.23;;
21386;SDS011;10854;45.922;6.716;2023-08-17T00:27:05;7.37;;;4.63;;
21386;SDS011;10854;45.922;6.716;2023-08-17T00:29:34;5.93;;;4.73;;
21386;SDS011;10854;45.922;6.716;2023-08-17T00:32:03;6.30;;;4.53;;
21386;SDS011;10854;45.922;6.716;2023-08-17T00:34:31;7.23;;;4.90;;
21386;SDS011;10854;45.922;6.716;2023-08-17T00:37:00;5.60;;;4.23;;
21386;SDS011;10854;45.922;6.716;2023-08-17T00:39:28;5.60;;;4.40;;
21386;SDS011;10854;45.922;6.716;2023-08-17T00:41:56;6.03;;;4.10;;
21386;SDS011;10854;45.922;6.716;2023-08-17T00:44:25;7.57;;;4.73;;
21386;SDS011;10854;45.922;6.716;2023-08-17T00:46:53;7.67;;;4.93;;
21386;SDS011;10854;45.922;6.716;2023-08-17T00:49:22;6.07;;;4.60;;
21386;SDS011;10854;45.922;6.716;2023-08-17T00:51:50;9.97;;;4.47;;
21386;SDS011;10854;45.922;6.716;2023-08-17T00:54:21;6.70;;;5.03;;
21386;SDS011;10854;45.922;6.716;2023-08-17T00:56:53;7.23;;;4.80;;
21386;SDS011;10854;45.922;6.716;2023-08-17T00:59:22;6.67;;;4.90;;
21386;SDS011;10854;45.922;6.716;2023-08-17T01:01:51;9.07;;;5.63;;
21386;SDS011;10854;45.922;6.716;2023-08-17T01:04:20;7.00;;;4.43;;
21386;SDS011;10854;45.922;6.716;2023-08-17T01:06:48;4.37;;;3.90;;
21386;SDS011;10854;45.922;6.716;2023-08-17T01:09:17;8.80;;;7.27;;
21386;SDS011;10854;45.922;6.716;2023-08-17T01:11:49;7.43;;;6.17;;
21386;SDS011;10854;45.922;6.716;2023-08-17T01:14:28;6.53;;;5.10;;
21386;SDS011;10854;45.922;6.716;2023-08-17T01:17:06;6.73;;;4.80;;
21386;SDS011;10854;45.922;6.716;2023-08-17T01:19:40;7.23;;;5.07;;
21386;SDS011;10854;45.922;6.716;2023-08-17T01:22:10;8.67;;;5.20;;
21386;SDS011;10854;45.922;6.716;2023-08-17T01:24:46;6.53;;;4.90;;
21386;SDS011;10854;45.922;6.716;2023-08-17T01:27:14;7.23;;;4.50;;
21386;SDS011;10854;45.922;6.716;2023-08-17T01:29:42;7.27;;;4.90;;
21386;SDS011;10854;45.922;6.716;2023-08-17T01:35:05;5.13;;;3.97;;
21386;SDS011;10854;45.922;6.716;2023-08-17T01:37:44;7.60;;;3.97;;
21386;SDS011;10854;45.922;6.716;2023-08-17T01:40:12;6.20;;;4.43;;
21386;SDS011;10854;45.922;6.716;2023-08-17T01:42:42;5.57;;;4.03;;
21386;SDS011;10854;45.922;6.716;2023-08-17T01:45:11;8.90;;;3.67;;
21386;SDS011;10854;45.922;6.716;2023-08-17T01:47:40;6.20;;;3.60;;
21386;SDS011;10854;45.922;6.716;2023-08-17T01:50:09;6.47;;;4.00;;
21386;SDS011;10854;45.922;6.716;2023-08-17T01:52:37;4.83;;;3.50;;
21386;SDS011;10854;45.922;6.716;2023-08-17T01:55:05;4.17;;;3.57;;
21386;SDS011;10854;45.922;6.716;2023-08-17T01:57:34;4.57;;;3.07;;
21386;SDS011;10854;45.922;6.716;2023-08-17T02:00:06;4.33;;;3.50;;
21386;SDS011;10854;45.922;6.716;2023-08-17T02:02:37;5.20;;;3.30;;
21386;SDS011;10854;45.922;6.716;2023-08-17T02:05:06;4.53;;;3.33;;
21386;SDS011;10854;45.922;6.716;2023-08-17T02:07:35;7.20;;;3.87;;
21386;SDS011;10854;45.922;6.716;2023-08-17T02:10:03;5.53;;;3.50;;
21386;SDS011;10854;45.922;6.716;2023-08-17T02:12:32;3.70;;;3.30;;
21386;SDS011;10854;45.922;6.716;2023-08-17T02:15:00;4.67;;;3.33;;
21386;SDS011;10854;45.922;6.716;2023-08-17T02:17:28;3.83;;;3.23;;
21386;SDS011;10854;45.922;6.716;2023-08-17T02:19:57;4.03;;;3.17;;
21386;SDS011;10854;45.922;6.716;2023-08-17T02:22:25;3.27;;;2.97;;
21386;SDS011;10854;45.922;6.716;2023-08-17T02:24:53;4.17;;;3.27;;
21386;SDS011;10854;45.922;6.716;2023-08-17T02:27:22;4.63;;;3.00;;
21386;SDS011;10854;45.922;6.716;2023-08-17T02:29:50;4.73;;;3.30;;
21386;SDS011;10854;45.922;6.716;2023-08-17T02:32:19;4.35;;;3.53;;
21386;SDS011;10854;45.922;6.716;2023-08-17T02:34:47;4.82;;;3.85;;
21386;SDS011;10854;45.922;6.716;2023-08-17T02:37:16;4.37;;;3.30;;
21386;SDS011;10854;45.922;6.716;2023-08-17T02:39:44;5.00;;;3.47;;
21386;SDS011;10854;45.922;6.716;2023-08-17T02:42:12;7.27;;;3.63;;
21386;SDS011;10854;45.922;6.716;2023-08-17T02:44:41;4.63;;;3.40;;
21386;SDS011;10854;45.922;6.716;2023-08-17T02:47:09;5.67;;;3.30;;
21386;SDS011;10854;45.922;6.716;2023-08-17T02:49:38;5.80;;;3.38;;
21386;SDS011;10854;45.922;6.716;2023-08-17T02:52:06;5.20;;;3.30;;
21386;SDS011;10854;45.922;6.716;2023-08-17T02:54:34;4.33;;;3.60;;
21386;SDS011;10854;45.922;6.716;2023-08-17T02:57:03;5.53;;;3.37;;
21386;SDS011;10854;45.922;6.716;2023-08-17T02:59:31;5.37;;;3.57;;
21386;SDS011;10854;45.922;6.716;2023-08-17T03:01:59;6.73;;;3.70;;
21386;SDS011;10854;45.922;6.716;2023-08-17T03:04:27;4.17;;;3.33;;
21386;SDS011;10854;45.922;6.716;2023-08-17T03:06:56;4.97;;;3.43;;
21386;SDS011;10854;45.922;6.716;2023-08-17T03:09:25;3.80;;;3.30;;
21386;SDS011;10854;45.922;6.716;2023-08-17T03:11:53;4.47;;;3.27;;
21386;SDS011;10854;45.922;6.716;2023-08-17T03:14:22;5.43;;;3.53;;
21386;SDS011;10854;45.922;6.716;2023-08-17T03:16:50;5.50;;;3.43;;
21386;SDS011;10854;45.922;6.716;2023-08-17T03:19:19;3.77;;;3.13;;
21386;SDS011;10854;45.922;6.716;2023-08-17T03:21:47;4.87;;;3.13;;
21386;SDS011;10854;45.922;6.716;2023-08-17T03:24:15;3.07;;;2.87;;
21386;SDS011;10854;45.922;6.716;2023-08-17T03:26:43;5.80;;;3.40;;
21386;SDS011;10854;45.922;6.716;2023-08-17T03:29:12;3.40;;;2.90;;
21386;SDS011;10854;45.922;6.716;2023-08-17T03:31:40;4.03;;;3.20;;
21386;SDS011;10854;45.922;6.716;2023-08-17T03:34:08;4.23;;;3.43;;
21386;SDS011;10854;45.922;6.716;2023-08-17T03:36:37;8.23;;;3.67;;
21386;SDS011;10854;45.922;6.716;2023-08-17T03:39:05;5.03;;;3.40;;
21386;SDS011;10854;45.922;6.716;2023-08-17T03:41:33;4.73;;;3.43;;
21386;SDS011;10854;45.922;6.716;2023-08-17T03:44:04;3.97;;;3.17;;
21386;SDS011;10854;45.922;6.716;2023-08-17T03:46:33;4.43;;;3.40;;
21386;SDS011;10854;45.922;6.716;2023-08-17T03:49:01;6.13;;;3.50;;
21386;SDS011;10854;45.922;6.716;2023-08-17T03:51:30;5.60;;;3.30;;
21386;SDS011;10854;45.922;6.716;2023-08-17T03:53:58;3.60;;;3.00;;
21386;SDS011;10854;45.922;6.716;2023-08-17T03:56:27;4.17;;;3.13;;
21386;SDS011;10854;45.922;6.716;2023-08-17T03:58:56;3.97;;;3.13;;
21386;SDS011;10854;45.922;6.716;2023-08-17T04:01:25;14.73;;;4.17;;
21386;SDS011;10854;45.922;6.716;2023-08-17T04:03:54;17.33;;;4.10;;
21386;SDS011;10854;45.922;6.716;2023-08-17T04:06:22;12.20;;;4.07;;
21386;SDS011;10854;45.922;6.716;2023-08-17T04:08:51;8.03;;;3.50;;
21386;SDS011;10854;45.922;6.716;2023-08-17T04:11:19;5.40;;;3.60;;
21386;SDS011;10854;45.922;6.716;2023-08-17T04:13:47;7.43;;;3.60;;
21386;SDS011;10854;45.922;6.716;2023-08-17T04:16:16;5.83;;;3.50;;
21386;SDS011;10854;45.922;6.716;2023-08-17T04:18:44;6.70;;;3.60;;
21386;SDS011;10854;45.922;6.716;2023-08-17T04:21:12;6.03;;;3.73;;
21386;SDS011;10854;45.922;6.716;2023-08-17T04:23:41;7.33;;;3.30;;
21386;SDS011;10854;45.922;6.716;2023-08-17T04:26:09;4.27;;;3.70;;
21386;SDS011;10854;45.922;6.716;2023-08-17T04:28:37;6.23;;;3.60;;
21386;SDS011;10854;45.922;6.716;2023-08-17T04:31:06;4.73;;;3.47;;
21386;SDS011;10854;45.922;6.716;2023-08-17T04:33:34;8.37;;;3.80;;
21386;SDS011;10854;45.922;6.716;2023-08-17T04:36:02;6.17;;;3.30;;
21386;SDS011;10854;45.922;6.716;2023-08-17T04:38:31;5.90;;;3.47;;
21386;SDS011;10854;45.922;6.716;2023-08-17T04:40:59;4.50;;;3.33;;
21386;SDS011;10854;45.922;6.716;2023-08-17T04:43:28;5.90;;;3.20;;
21386;SDS011;10854;45.922;6.716;2023-08-17T04:45:56;4.60;;;3.53;;
21386;SDS011;10854;45.922;6.716;2023-08-17T04:48:25;7.03;;;3.50;;
21386;SDS011;10854;45.922;6.716;2023-08-17T04:50:53;8.37;;;3.87;;
21386;SDS011;10854;45.922;6.716;2023-08-17T04:53:21;4.63;;;3.00;;
21386;SDS011;10854;45.922;6.716;2023-08-17T04:55:50;5.67;;;3.60;;
21386;SDS011;10854;45.922;6.716;2023-08-17T04:58:18;12.83;;;4.07;;
21386;SDS011;10854;45.922;6.716;2023-08-17T05:00:46;7.77;;;3.60;;
21386;SDS011;10854;45.922;6.716;2023-08-17T05:03:15;10.03;;;3.70;;
21386;SDS011;10854;45.922;6.716;2023-08-17T05:05:51;13.20;;;4.30;;
21386;SDS011;10854;45.922;6.716;2023-08-17T05:08:20;11.10;;;4.33;;
21386;SDS011;10854;45.922;6.716;2023-08-17T05:10:49;7.07;;;3.63;;
21386;SDS011;10854;45.922;6.716;2023-08-17T05:13:18;7.80;;;3.80;;
21386;SDS011;10854;45.922;6.716;2023-08-17T05:15:46;10.33;;;3.60;;
21386;SDS011;10854;45.922;6.716;2023-08-17T05:18:15;7.63;;;3.60;;
21386;SDS011;10854;45.922;6.716;2023-08-17T05:20:43;8.73;;;3.50;;
21386;SDS011;10854;45.922;6.716;2023-08-17T05:23:11;7.27;;;3.67;;
21386;SDS011;10854;45.922;6.716;2023-08-17T05:25:40;10.43;;;3.97;;
21386;SDS011;10854;45.922;6.716;2023-08-17T05:28:08;8.70;;;4.03;;
21386;SDS011;10854;45.922;6.716;2023-08-17T05:30:36;10.83;;;6.43;;
21386;SDS011;10854;45.922;6.716;2023-08-17T05:33:05;6.30;;;4.93;;
21386;SDS011;10854;45.922;6.716;2023-08-17T05:35:33;6.83;;;3.50;;
21386;SDS011;10854;45.922;6.716;2023-08-17T05:38:01;4.70;;;3.33;;
21386;SDS011;10854;45.922;6.716;2023-08-17T05:40:30;7.47;;;3.67;;
21386;SDS011;10854;45.922;6.716;2023-08-17T05:42:59;9.37;;;3.73;;
21386;SDS011;10854;45.922;6.716;2023-08-17T05:45:28;8.70;;;4.13;;
21386;SDS011;10854;45.922;6.716;2023-08-17T05:47:56;8.90;;;4.20;;
21386;SDS011;10854;45.922;6.716;2023-08-17T05:50:27;10.80;;;4.10;;
21386;SDS011;10854;45.922;6.716;2023-08-17T05:52:55;5.38;;;3.97;;
21386;SDS011;10854;45.922;6.716;2023-08-17T05:55:24;6.40;;;3.83;;
21386;SDS011;10854;45.922;6.716;2023-08-17T05:57:53;8.55;;;3.47;;
21386;SDS011;10854;45.922;6.716;2023-08-17T06:00:21;5.50;;;3.93;;
21386;SDS011;10854;45.922;6.716;2023-08-17T06:02:51;6.03;;;4.33;;
21386;SDS011;10854;45.922;6.716;2023-08-17T06:05:19;8.45;;;3.92;;
21386;SDS011;10854;45.922;6.716;2023-08-17T06:07:53;5.82;;;3.80;;
21386;SDS011;10854;45.922;6.716;2023-08-17T06:10:23;7.10;;;4.20;;
21386;SDS011;10854;45.922;6.716;2023-08-17T06:12:55;13.07;;;3.73;;
21386;SDS011;10854;45.922;6.716;2023-08-17T06:15:25;7.57;;;3.50;;
21386;SDS011;10854;45.922;6.716;2023-08-17T06:17:55;5.60;;;4.07;;
21386;SDS011;10854;45.922;6.716;2023-08-17T06:20:25;9.20;;;4.17;;
21386;SDS011;10854;45.922;6.716;2023-08-17T06:22:55;9.83;;;4.13;;
21386;SDS011;10854;45.922;6.716;2023-08-17T06:25:23;8.57;;;3.90;;
21386;SDS011;10854;45.922;6.716;2023-08-17T06:27:53;7.60;;;3.97;;
21386;SDS011;10854;45.922;6.716;2023-08-17T06:30:22;9.27;;;4.33;;
21386;SDS011;10854;45.922;6.716;2023-08-17T06:32:51;6.18;;;3.80;;
21386;SDS011;10854;45.922;6.716;2023-08-17T06:35:20;8.13;;;3.90;;
21386;SDS011;10854;45.922;6.716;2023-08-17T06:37:48;7.00;;;4.00;;
21386;SDS011;10854;45.922;6.716;2023-08-17T06:40:18;5.22;;;3.75;;
21386;SDS011;10854;45.922;6.716;2023-08-17T06:42:47;11.05;;;4.20;;
21386;SDS011;10854;45.922;6.716;2023-08-17T06:45:16;9.65;;;3.72;;
21386;SDS011;10854;45.922;6.716;2023-08-17T06:47:47;7.22;;;4.00;;
21386;SDS011;10854;45.922;6.716;2023-08-17T06:50:16;7.43;;;4.20;;
21386;SDS011;10854;45.922;6.716;2023-08-17T06:52:45;8.82;;;3.80;;
21386;SDS011;10854;45.922;6.716;2023-08-17T06:55:13;7.72;;;4.00;;
21386;SDS011;10854;45.922;6.716;2023-08-17T06:57:44;11.13;;;4.07;;
21386;SDS011;10854;45.922;6.716;2023-08-17T07:00:13;10.40;;;4.07;;
21386;SDS011;10854;45.922;6.716;2023-08-17T07:02:41;6.60;;;3.50;;
21386;SDS011;10854;45.922;6.716;2023-08-17T07:05:18;6.88;;;4.07;;
21386;SDS011;10854;45.922;6.716;2023-08-17T07:07:48;6.68;;;3.60;;
21386;SDS011;10854;45.922;6.716;2023-08-17T07:10:17;5.20;;;3.38;;
21386;SDS011;10854;45.922;6.716;2023-08-17T07:12:45;5.00;;;3.25;;
21386;SDS011;10854;45.922;6.716;2023-08-17T07:15:13;3.92;;;3.50;;
21386;SDS011;10854;45.922;6.716;2023-08-17T07:17:42;8.70;;;3.70;;
21386;SDS011;10854;45.922;6.716;2023-08-17T07:20:11;6.22;;;3.35;;
21386;SDS011;10854;45.922;6.716;2023-08-17T07:22:42;8.07;;;3.55;;
21386;SDS011;10854;45.922;6.716;2023-08-17T07:25:10;5.63;;;3.78;;
21386;SDS011;10854;45.922;6.716;2023-08-17T07:27:39;6.80;;;3.67;;
21386;SDS011;10854;45.922;6.716;2023-08-17T07:30:08;9.05;;;3.33;;
21386;SDS011;10854;45.922;6.716;2023-08-17T07:32:38;6.68;;;3.67;;
21386;SDS011;10854;45.922;6.716;2023-08-17T07:35:06;6.00;;;3.55;;
21386;SDS011;10854;45.922;6.716;2023-08-17T07:37:36;6.07;;;3.63;;
21386;SDS011;10854;45.922;6.716;2023-08-17T07:40:05;5.72;;;3.65;;
21386;SDS011;10854;45.922;6.716;2023-08-17T07:42:34;9.70;;;4.22;;
21386;SDS011;10854;45.922;6.716;2023-08-17T07:45:03;12.57;;;4.55;;
21386;SDS011;10854;45.922;6.716;2023-08-17T07:47:34;17.33;;;5.00;;
21386;SDS011;10854;45.922;6.716;2023-08-17T07:50:04;8.00;;;4.10;;
21386;SDS011;10854;45.922;6.716;2023-08-17T07:52:33;12.98;;;4.28;;
21386;SDS011;10854;45.922;6.716;2023-08-17T07:55:02;12.13;;;4.30;;
21386;SDS011;10854;45.922;6.716;2023-08-17T07:57:31;12.52;;;3.92;;
21386;SDS011;10854;45.922;6.716;2023-08-17T08:00:00;13.45;;;4.20;;
21386;SDS011;10854;45.922;6.716;2023-08-17T08:02:29;10.32;;;4.05;;
21386;SDS011;10854;45.922;6.716;2023-08-17T08:04:57;14.15;;;3.63;;
21386;SDS011;10854;45.922;6.716;2023-08-17T08:07:25;17.02;;;4.40;;
21386;SDS011;10854;45.922;6.716;2023-08-17T08:09:54;18.17;;;4.90;;
21386;SDS011;10854;45.922;6.716;2023-08-17T08:12:22;11.35;;;4.00;;
21386;SDS011;10854;45.922;6.716;2023-08-17T08:14:51;12.65;;;4.20;;
21386;SDS011;10854;45.922;6.716;2023-08-17T08:17:19;16.60;;;4.32;;
21386;SDS011;10854;45.922;6.716;2023-08-17T08:19:52;7.47;;;3.80;;
21386;SDS011;10854;45.922;6.716;2023-08-17T08:22:21;9.07;;;3.70;;
21386;SDS011;10854;45.922;6.716;2023-08-17T08:24:50;8.70;;;4.10;;
21386;SDS011;10854;45.922;6.716;2023-08-17T08:27:18;7.75;;;3.75;;
21386;SDS011;10854;45.922;6.716;2023-08-17T08:29:47;12.93;;;4.20;;
21386;SDS011;10854;45.922;6.716;2023-08-17T08:32:15;8.35;;;3.67;;
21386;SDS011;10854;45.922;6.716;2023-08-17T08:34:43;14.50;;;4.70;;
21386;SDS011;10854;45.922;6.716;2023-08-17T08:37:12;12.60;;;4.18;;
21386;SDS011;10854;45.922;6.716;2023-08-17T08:39:53;8.07;;;3.58;;
21386;SDS011;10854;45.922;6.716;2023-08-17T08:42:23;8.27;;;3.65;;
21386;SDS011;10854;45.922;6.716;2023-08-17T08:44:52;9.00;;;3.50;;
21386;SDS011;10854;45.922;6.716;2023-08-17T08:47:21;9.15;;;4.13;;
21386;SDS011;10854;45.922;6.716;2023-08-17T08:49:57;9.07;;;3.97;;
21386;SDS011;10854;45.922;6.716;2023-08-17T08:52:33;11.63;;;3.67;;
21386;SDS011;10854;45.922;6.716;2023-08-17T08:55:11;9.27;;;3.78;;
21386;SDS011;10854;45.922;6.716;2023-08-17T08:57:46;6.20;;;3.80;;
21386;SDS011;10854;45.922;6.716;2023-08-17T09:00:18;8.80;;;4.03;;
21386;SDS011;10854;45.922;6.716;2023-08-17T09:02:47;7.43;;;3.83;;
21386;SDS011;10854;45.922;6.716;2023-08-17T09:05:17;7.72;;;3.83;;
21386;SDS011;10854;45.922;6.716;2023-08-17T09:07:46;15.85;;;4.13;;
21386;SDS011;10854;45.922;6.716;2023-08-17T09:10:23;9.15;;;4.13;;
21386;SDS011;10854;45.922;6.716;2023-08-17T09:12:57;11.25;;;4.00;;
21386;SDS011;10854;45.922;6.716;2023-08-17T09:15:26;10.70;;;4.05;;
21386;SDS011;10854;45.922;6.716;2023-08-17T09:17:56;6.85;;;4.22;;
21386;SDS011;10854;45.922;6.716;2023-08-17T09:20:41;10.32;;;4.22;;
21386;SDS011;10854;45.922;6.716;2023-08-17T09:23:18;7.22;;;3.97;;
21386;SDS011;10854;45.922;6.716;2023-08-17T09:25:49;6.63;;;3.65;;
21386;SDS011;10854;45.922;6.716;2023-08-17T09:28:25;13.00;;;3.97;;
21386;SDS011;10854;45.922;6.716;2023-08-17T09:30:57;7.22;;;3.65;;
21386;SDS011;10854;45.922;6.716;2023-08-17T09:33:28;6.30;;;3.85;;
21386;SDS011;10854;45.922;6.716;2023-08-17T09:35:58;7.57;;;3.80;;
21386;SDS011;10854;45.922;6.716;2023-08-17T09:38:27;10.15;;;3.95;;
21386;SDS011;10854;45.922;6.716;2023-08-17T09:40:57;7.18;;;3.63;;
21386;SDS011;10854;45.922;6.716;2023-08-17T09:43:27;8.45;;;4.18;;
21386;SDS011;10854;45.922;6.716;2023-08-17T09:46:01;7.80;;;3.67;;
21386;SDS011;10854;45.922;6.716;2023-08-17T09:48:30;7.90;;;3.60;;
21386;SDS011;10854;45.922;6.716;2023-08-17T09:50:59;9.77;;;3.60;;
21386;SDS011;10854;45.922;6.716;2023-08-17T09:53:29;7.80;;;4.20;;
21386;SDS011;10854;45.922;6.716;2023-08-17T09:56:02;6.68;;;3.80;;
21386;SDS011;10854;45.922;6.716;2023-08-17T09:58:31;6.75;;;4.05;;
21386;SDS011;10854;45.922;6.716;2023-08-17T10:01:01;7.47;;;3.70;;
21386;SDS011;10854;45.922;6.716;2023-08-17T10:03:32;8.52;;;3.97;;
21386;SDS011;10854;45.922;6.716;2023-08-17T10:06:05;6.55;;;3.95;;
21386;SDS011;10854;45.922;6.716;2023-08-17T10:08:39;9.13;;;4.25;;
21386;SDS011;10854;45.922;6.716;2023-08-17T10:11:12;6.80;;;3.75;;
21386;SDS011;10854;45.922;6.716;2023-08-17T10:13:43;8.18;;;3.65;;
21386;SDS011;10854;45.922;6.716;2023-08-17T10:16:22;5.88;;;3.70;;
21386;SDS011;10854;45.922;6.716;2023-08-17T10:18:58;7.63;;;3.72;;
21386;SDS011;10854;45.922;6.716;2023-08-17T10:21:37;7.03;;;3.67;;
21386;SDS011;10854;45.922;6.716;2023-08-17T10:24:11;6.35;;;3.85;;
21386;SDS011;10854;45.922;6.716;2023-08-17T10:26:40;5.70;;;3.85;;
21386;SDS011;10854;45.922;6.716;2023-08-17T10:29:09;4.38;;;3.97;;
21386;SDS011;10854;45.922;6.716;2023-08-17T10:31:40;6.40;;;4.20;;
21386;SDS011;10854;45.922;6.716;2023-08-17T10:34:15;6.35;;;3.63;;
21386;SDS011;10854;45.922;6.716;2023-08-17T10:36:45;7.07;;;3.85;;
21386;SDS011;10854;45.922;6.716;2023-08-17T10:39:20;6.80;;;4.00;;
21386;SDS011;10854;45.922;6.716;2023-08-17T10:41:57;8.98;;;4.20;;
21386;SDS011;10854;45.922;6.716;2023-08-17T10:47:24;8.77;;;3.70;;
21386;SDS011;10854;45.922;6.716;2023-08-17T10:50:06;5.60;;;3.97;;
21386;SDS011;10854;45.922;6.716;2023-08-17T10:52:53;10.10;;;3.72;;
21386;SDS011;10854;45.922;6.716;2023-08-17T10:55:35;8.35;;;3.90;;
21386;SDS011;10854;45.922;6.716;2023-08-17T10:58:05;6.75;;;3.47;;
21386;SDS011;10854;45.922;6.716;2023-08-17T11:00:40;8.18;;;3.80;;
21386;SDS011;10854;45.922;6.716;2023-08-17T11:03:18;56.28;;;7.40;;
21386;SDS011;10854;45.922;6.716;2023-08-17T11:05:55;20.52;;;4.40;;
21386;SDS011;10854;45.922;6.716;2023-08-17T11:08:28;6.35;;;3.38;;
21386;SDS011;10854;45.922;6.716;2023-08-17T11:13:36;7.93;;;3.65;;
21386;SDS011;10854;45.922;6.716;2023-08-17T11:16:06;7.25;;;3.80;;
21386;SDS011;10854;45.922;6.716;2023-08-17T11:18:36;9.48;;;3.63;;
21386;SDS011;10854;45.922;6.716;2023-08-17T11:21:06;7.95;;;3.38;;
21386;SDS011;10854;45.922;6.716;2023-08-17T11:23:36;12.43;;;3.65;;
21386;SDS011;10854;45.922;6.716;2023-08-17T11:26:05;8.40;;;3.42;;
21386;SDS011;10854;45.922;6.716;2023-08-17T11:28:34;8.80;;;3.55;;
21386;SDS011;10854;45.922;6.716;2023-08-17T11:31:09;11.57;;;3.72;;
21386;SDS011;10854;45.922;6.716;2023-08-17T11:33:39;12.68;;;3.80;;
21386;SDS011;10854;45.922;6.716;2023-08-17T11:36:08;10.10;;;3.88;;
21386;SDS011;10854;45.922;6.716;2023-08-17T11:38:38;11.95;;;4.18;;
21386;SDS011;10854;45.922;6.716;2023-08-17T11:41:08;7.65;;;3.35;;
21386;SDS011;10854;45.922;6.716;2023-08-17T11:43:44;8.38;;;3.65;;
21386;SDS011;10854;45.922;6.716;2023-08-17T11:46:13;5.95;;;3.38;;
21386;SDS011;10854;45.922;6.716;2023-08-17T11:48:43;11.57;;;3.63;;
21386;SDS011;10854;45.922;6.716;2023-08-17T11:51:12;10.63;;;3.72;;
21386;SDS011;10854;45.922;6.716;2023-08-17T11:53:40;9.75;;;3.70;;
21386;SDS011;10854;45.922;6.716;2023-08-17T11:56:14;9.98;;;3.58;;
21386;SDS011;10854;45.922;6.716;2023-08-17T11:58:43;13.48;;;3.80;;
21386;SDS011;10854;45.922;6.716;2023-08-17T12:01:16;10.50;;;3.50;;
21386;SDS011;10854;45.922;6.716;2023-08-17T12:03:44;10.43;;;3.63;;
21386;SDS011;10854;45.922;6.716;2023-08-17T12:06:13;13.57;;;3.53;;
21386;SDS011;10854;45.922;6.716;2023-08-17T12:08:47;13.10;;;3.65;;
21386;SDS011;10854;45.922;6.716;2023-08-17T12:11:16;12.93;;;3.45;;
21386;SDS011;10854;45.922;6.716;2023-08-17T12:13:51;12.10;;;4.07;;
21386;SDS011;10854;45.922;6.716;2023-08-17T12:16:20;9.70;;;3.45;;
21386;SDS011;10854;45.922;6.716;2023-08-17T12:18:50;9.85;;;3.40;;
21386;SDS011;10854;45.922;6.716;2023-08-17T12:21:22;9.52;;;2.90;;
21386;SDS011;10854;45.922;6.716;2023-08-17T12:23:51;12.48;;;3.45;;
21386;SDS011;10854;45.922;6.716;2023-08-17T12:26:20;12.45;;;3.22;;
21386;SDS011;10854;45.922;6.716;2023-08-17T12:28:49;9.70;;;3.25;;
21386;SDS011;10854;45.922;6.716;2023-08-17T12:31:22;9.82;;;3.78;;
21386;SDS011;10854;45.922;6.716;2023-08-17T12:33:51;14.88;;;3.78;;
21386;SDS011;10854;45.922;6.716;2023-08-17T12:36:20;12.00;;;3.60;;
21386;SDS011;10854;45.922;6.716;2023-08-17T12:38:48;12.40;;;3.40;;
21386;SDS011;10854;45.922;6.716;2023-08-17T12:41:17;12.20;;;3.30;;
21386;SDS011;10854;45.922;6.716;2023-08-17T12:43:45;12.10;;;3.22;;
21386;SDS011;10854;45.922;6.716;2023-08-17T12:46:14;10.98;;;3.33;;
21386;SDS011;10854;45.922;6.716;2023-08-17T12:48:42;12.95;;;3.78;;
21386;SDS011;10854;45.922;6.716;2023-08-17T12:51:11;9.20;;;2.80;;
21386;SDS011;10854;45.922;6.716;2023-08-17T12:53:39;14.90;;;3.30;;
21386;SDS011;10854;45.922;6.716;2023-08-17T12:56:08;11.75;;;2.75;;
21386;SDS011;10854;45.922;6.716;2023-08-17T12:58:37;8.70;;;2.85;;
21386;SDS011;10854;45.922;6.716;2023-08-17T13:01:05;12.82;;;3.55;;
21386;SDS011;10854;45.922;6.716;2023-08-17T13:03:34;12.88;;;3.75;;
21386;SDS011;10854;45.922;6.716;2023-08-17T13:06:02;11.27;;;3.72;;
21386;SDS011;10854;45.922;6.716;2023-08-17T13:08:30;11.88;;;3.63;;
21386;SDS011;10854;45.922;6.716;2023-08-17T13:10:59;10.30;;;3.38;;
21386;SDS011;10854;45.922;6.716;2023-08-17T13:13:28;9.65;;;3.22;;
21386;SDS011;10854;45.922;6.716;2023-08-17T13:15:56;12.20;;;3.50;;
21386;SDS011;10854;45.922;6.716;2023-08-17T13:18:25;16.45;;;3.72;;
21386;SDS011;10854;45.922;6.716;2023-08-17T13:20:53;13.32;;;3.80;;
21386;SDS011;10854;45.922;6.716;2023-08-17T13:23:21;10.23;;;3.42;;
21386;SDS011;10854;45.922;6.716;2023-08-17T13:25:50;12.95;;;3.80;;
21386;SDS011;10854;45.922;6.716;2023-08-17T13:28:18;11.90;;;3.55;;
21386;SDS011;10854;45.922;6.716;2023-08-17T13:30:47;11.35;;;3.55;;
21386;SDS011;10854;45.922;6.716;2023-08-17T13:33:16;10.75;;;3.45;;
21386;SDS011;10854;45.922;6.716;2023-08-17T13:35:44;12.35;;;3.33;;
21386;SDS011;10854;45.922;6.716;2023-08-17T13:38:12;12.18;;;3.50;;
21386;SDS011;10854;45.922;6.716;2023-08-17T13:40:42;12.50;;;3.78;;
21386;SDS011;10854;45.922;6.716;2023-08-17T13:43:11;13.30;;;3.47;;
21386;SDS011;10854;45.922;6.716;2023-08-17T13:45:40;11.27;;;3.45;;
21386;SDS011;10854;45.922;6.716;2023-08-17T13:48:08;9.20;;;3.50;;
21386;SDS011;10854;45.922;6.716;2023-08-17T13:50:37;17.73;;;3.60;;
21386;SDS011;10854;45.922;6.716;2023-08-17T13:53:07;9.82;;;3.33;;
21386;SDS011;10854;45.922;6.716;2023-08-17T13:55:35;13.98;;;3.90;;
21386;SDS011;10854;45.922;6.716;2023-08-17T13:58:03;12.85;;;3.47;;
21386;SDS011;10854;45.922;6.716;2023-08-17T14:00:32;13.40;;;3.85;;
21386;SDS011;10854;45.922;6.716;2023-08-17T14:03:00;10.70;;;3.60;;
21386;SDS011;10854;45.922;6.716;2023-08-17T14:05:30;9.13;;;3.63;;
21386;SDS011;10854;45.922;6.716;2023-08-17T14:07:59;14.65;;;3.88;;
21386;SDS011;10854;45.922;6.716;2023-08-17T14:10:27;10.35;;;3.33;;
21386;SDS011;10854;45.922;6.716;2023-08-17T14:13:03;11.02;;;3.38;;
21386;SDS011;10854;45.922;6.716;2023-08-17T14:15:33;13.32;;;3.30;;
21386;SDS011;10854;45.922;6.716;2023-08-17T14:18:01;9.52;;;3.22;;
21386;SDS011;10854;45.922;6.716;2023-08-17T14:20:31;11.93;;;3.47;;
21386;SDS011;10854;45.922;6.716;2023-08-17T14:22:59;11.75;;;3.35;;
21386;SDS011;10854;45.922;6.716;2023-08-17T14:25:27;13.27;;;3.58;;
21386;SDS011;10854;45.922;6.716;2023-08-17T14:27:57;14.43;;;3.83;;
21386;SDS011;10854;45.922;6.716;2023-08-17T14:30:27;10.98;;;3.03;;
21386;SDS011;10854;45.922;6.716;2023-08-17T14:32:58;10.50;;;3.30;;
21386;SDS011;10854;45.922;6.716;2023-08-17T14:35:27;12.45;;;3.45;;
21386;SDS011;10854;45.922;6.716;2023-08-17T14:37:56;12.80;;;3.63;;
21386;SDS011;10854;45.922;6.716;2023-08-17T14:40:26;14.25;;;3.35;;
21386;SDS011;10854;45.922;6.716;2023-08-17T14:42:54;16.27;;;3.55;;
21386;SDS011;10854;45.922;6.716;2023-08-17T14:45:23;10.40;;;3.58;;
21386;SDS011;10854;45.922;6.716;2023-08-17T14:47:51;10.52;;;3.58;;
21386;SDS011;10854;45.922;6.716;2023-08-17T14:50:20;12.77;;;3.67;;
21386;SDS011;10854;45.922;6.716;2023-08-17T14:52:48;11.45;;;3.67;;
21386;SDS011;10854;45.922;6.716;2023-08-17T14:55:16;12.32;;;3.70;;
21386;SDS011;10854;45.922;6.716;2023-08-17T14:57:45;12.73;;;3.42;;
21386;SDS011;10854;45.922;6.716;2023-08-17T15:00:15;12.50;;;3.58;;
21386;SDS011;10854;45.922;6.716;2023-08-17T15:02:44;14.00;;;3.40;;
21386;SDS011;10854;45.922;6.716;2023-08-17T15:05:12;11.35;;;2.83;;
21386;SDS011;10854;45.922;6.716;2023-08-17T15:07:40;11.68;;;2.88;;